createdAt,value
2018-11-10T00:00:19.173Z,10.70
2018-11-10T00:02:48.292Z,10.70
2018-11-10T00:05:17.051Z,10.70
2018-11-10T00:07:45.505Z,10.80
2018-11-10T00:10:13.875Z,10.60
2018-11-10T00:12:42.387Z,10.50
2018-11-10T00:15:12.332Z,10.50
2018-11-10T00:17:40.694Z,10.60
2018-11-10T00:20:09.255Z,10.70
2018-11-10T00:22:38.572Z,10.60
2018-11-10T00:25:08.261Z,10.60
2018-11-10T00:27:36.597Z,10.70
2018-11-10T00:30:05.596Z,10.60
2018-11-10T00:32:33.984Z,10.60
2018-11-10T00:35:02.356Z,10.60
2018-11-10T00:37:30.707Z,10.60
2018-11-10T00:39:59.101Z,10.70
2018-11-10T00:42:27.478Z,10.70
2018-11-10T00:44:55.851Z,10.80
2018-11-10T00:47:24.189Z,10.70
2018-11-10T00:49:52.621Z,10.80
2018-11-10T00:52:21.316Z,10.80
2018-11-10T00:54:49.690Z,10.80
2018-11-10T00:57:18.102Z,10.80
2018-11-10T00:59:46.490Z,10.80
2018-11-10T01:02:14.884Z,10.80
2018-11-10T01:04:43.288Z,10.80
2018-11-10T01:07:11.653Z,10.80
2018-11-10T01:09:40.064Z,10.70
2018-11-10T01:12:08.422Z,10.70
2018-11-10T01:14:36.778Z,10.70
2018-11-10T01:17:05.407Z,10.80
2018-11-10T01:19:33.775Z,10.80
2018-11-10T01:22:02.146Z,10.80
2018-11-10T01:24:30.477Z,10.80
2018-11-10T01:26:58.834Z,10.80
2018-11-10T01:29:27.198Z,10.80
2018-11-10T01:31:55.549Z,10.80
2018-11-10T01:34:23.921Z,10.80
2018-11-10T01:36:52.279Z,10.80
2018-11-10T01:39:20.650Z,10.80
2018-11-10T01:41:49.022Z,10.90
2018-11-10T01:44:17.354Z,11.00
2018-11-10T01:46:45.721Z,11.20
2018-11-10T01:49:14.084Z,11.30
2018-11-10T01:51:42.427Z,11.30
2018-11-10T01:54:10.790Z,11.30
2018-11-10T01:56:39.149Z,11.30
2018-11-10T01:59:07.527Z,11.40
2018-11-10T02:01:35.901Z,11.40
2018-11-10T02:04:04.292Z,11.50
2018-11-10T02:06:32.686Z,11.50
2018-11-10T02:09:01.017Z,11.50
2018-11-10T02:11:29.374Z,11.50
2018-11-10T02:13:57.752Z,11.40
2018-11-10T02:16:26.087Z,11.40
2018-11-10T02:18:54.414Z,11.40
2018-11-10T02:21:22.837Z,11.40
2018-11-10T02:23:51.330Z,11.40
2018-11-10T02:26:19.760Z,11.40
2018-11-10T02:28:48.188Z,11.40
2018-11-10T02:31:16.541Z,11.40
2018-11-10T02:33:45.007Z,11.50
2018-11-10T02:36:13.372Z,11.40
2018-11-10T02:38:41.786Z,11.40
2018-11-10T02:41:10.077Z,11.40
2018-11-10T02:43:38.438Z,11.40
2018-11-10T02:46:06.798Z,11.40
2018-11-10T02:48:35.158Z,11.40
2018-11-10T02:51:03.567Z,11.40
2018-11-10T02:53:31.884Z,11.40
2018-11-10T02:56:00.240Z,11.40
2018-11-10T02:58:28.580Z,11.40
2018-11-10T03:00:56.977Z,11.40
2018-11-10T03:03:25.328Z,11.40
2018-11-10T03:05:53.718Z,11.30
2018-11-10T03:08:22.093Z,11.30
2018-11-10T03:10:50.596Z,11.30
2018-11-10T03:13:18.940Z,11.30
2018-11-10T03:15:47.276Z,11.40
2018-11-10T03:18:15.652Z,11.30
2018-11-10T03:20:44.002Z,11.30
2018-11-10T03:23:12.398Z,11.30
2018-11-10T03:25:40.760Z,11.30
2018-11-10T03:28:09.130Z,11.30
2018-11-10T03:30:37.445Z,11.20
2018-11-10T03:33:06.097Z,11.20
2018-11-10T03:35:34.448Z,11.20
2018-11-10T03:38:02.777Z,11.20
2018-11-10T03:40:31.142Z,11.20
2018-11-10T03:42:59.488Z,11.20
2018-11-10T03:45:27.868Z,11.20
2018-11-10T03:47:56.232Z,11.20
2018-11-10T03:50:24.599Z,11.20
2018-11-10T03:52:53.241Z,11.20
2018-11-10T03:55:21.601Z,11.20
2018-11-10T03:57:49.963Z,11.20
2018-11-10T04:00:18.320Z,11.20
2018-11-10T04:02:46.942Z,11.20
2018-11-10T04:05:15.758Z,11.20
2018-11-10T04:07:45.064Z,11.10
2018-11-10T04:10:14.056Z,11.20
2018-11-10T04:12:42.455Z,11.20
2018-11-10T04:15:10.879Z,11.20
2018-11-10T04:17:39.256Z,11.30
2018-11-10T04:20:08.984Z,11.30
2018-11-10T04:22:38.178Z,11.30
2018-11-10T04:25:08.886Z,11.30
2018-11-10T04:27:37.278Z,11.30
2018-11-10T04:30:06.952Z,11.30
2018-11-10T04:32:36.086Z,11.30
2018-11-10T04:35:04.825Z,11.30
2018-11-10T04:37:33.184Z,11.30
2018-11-10T04:40:01.522Z,11.30
2018-11-10T04:42:29.891Z,11.30
2018-11-10T04:44:58.226Z,11.30
2018-11-10T04:47:26.602Z,11.40
2018-11-10T04:49:55.094Z,11.40
2018-11-10T04:52:23.344Z,11.40
2018-11-10T04:54:51.682Z,11.40
2018-11-10T04:57:20.052Z,11.40
2018-11-10T04:59:48.410Z,11.40
2018-11-10T05:02:16.748Z,11.50
2018-11-10T05:04:45.128Z,11.60
2018-11-10T05:07:13.488Z,11.60
2018-11-10T05:09:41.832Z,11.70
2018-11-10T05:12:10.217Z,11.70
2018-11-10T05:14:38.569Z,11.70
2018-11-10T05:17:06.949Z,11.80
2018-11-10T05:19:35.328Z,11.80
2018-11-10T05:22:03.708Z,11.80
2018-11-10T05:24:32.058Z,11.90
2018-11-10T05:27:00.415Z,11.90
2018-11-10T05:29:28.731Z,11.90
2018-11-10T05:31:57.085Z,12.00
2018-11-10T05:34:25.469Z,12.10
2018-11-10T05:36:53.852Z,12.10
2018-11-10T05:39:22.194Z,12.10
2018-11-10T05:41:50.535Z,12.10
2018-11-10T05:44:18.926Z,12.00
2018-11-10T05:46:47.255Z,12.00
2018-11-10T05:49:15.935Z,11.90
2018-11-10T05:51:44.362Z,11.80
2018-11-10T05:54:12.725Z,11.70
2018-11-10T05:56:41.075Z,11.50
2018-11-10T05:59:09.492Z,11.40
2018-11-10T06:01:37.861Z,11.40
2018-11-10T06:04:06.233Z,11.30
2018-11-10T06:06:34.567Z,11.30
2018-11-10T06:09:03.008Z,11.30
2018-11-10T06:11:31.337Z,11.30
2018-11-10T06:13:59.725Z,11.20
2018-11-10T06:16:28.104Z,11.20
2018-11-10T06:18:56.555Z,11.20
2018-11-10T06:21:24.787Z,11.10
2018-11-10T06:23:53.144Z,11.00
2018-11-10T06:26:21.533Z,11.10
2018-11-10T06:28:49.852Z,11.10
2018-11-10T06:31:18.224Z,11.10
2018-11-10T06:33:46.604Z,11.10
2018-11-10T06:36:14.948Z,11.10
2018-11-10T06:38:43.322Z,11.10
2018-11-10T06:41:11.699Z,11.10
2018-11-10T06:43:40.076Z,11.20
2018-11-10T06:46:08.443Z,11.20
2018-11-10T06:48:36.822Z,11.20
2018-11-10T06:51:05.294Z,11.30
2018-11-10T06:53:33.635Z,11.30
2018-11-10T06:56:01.992Z,11.30
2018-11-10T06:58:30.386Z,11.30
2018-11-10T07:00:58.713Z,11.30
2018-11-10T07:03:27.099Z,11.30
2018-11-10T07:05:55.429Z,11.20
2018-11-10T07:08:23.809Z,11.20
2018-11-10T07:10:52.187Z,11.20
2018-11-10T07:13:20.525Z,11.20
2018-11-10T07:15:48.915Z,11.20
2018-11-10T07:18:17.274Z,11.20
2018-11-10T07:20:45.619Z,11.20
2018-11-10T07:23:13.981Z,11.20
2018-11-10T07:25:42.358Z,11.10
2018-11-10T07:28:10.700Z,11.10
2018-11-10T07:30:39.067Z,11.10
2018-11-10T07:33:07.388Z,11.10
2018-11-10T07:35:35.780Z,11.10
2018-11-10T07:38:04.128Z,11.10
2018-11-10T07:40:32.538Z,11.10
2018-11-10T07:43:00.920Z,11.10
2018-11-10T07:45:29.272Z,11.10
2018-11-10T07:47:57.656Z,11.10
2018-11-10T07:50:26.032Z,11.00
2018-11-10T07:52:54.397Z,11.00
2018-11-10T07:55:22.757Z,11.10
2018-11-10T07:57:51.113Z,11.10
2018-11-10T08:00:19.564Z,11.10
2018-11-10T08:02:47.885Z,11.10
2018-11-10T08:05:16.796Z,11.10
2018-11-10T08:07:45.374Z,11.10
2018-11-10T08:10:14.338Z,11.10
2018-11-10T08:12:42.696Z,11.10
2018-11-10T08:15:13.043Z,11.20
2018-11-10T08:17:41.631Z,11.20
2018-11-10T08:20:10.738Z,11.20
2018-11-10T08:22:39.120Z,11.20
2018-11-10T08:25:09.191Z,11.30
2018-11-10T08:27:37.723Z,11.30
2018-11-10T08:30:08.049Z,11.30
2018-11-10T08:32:36.381Z,11.40
2018-11-10T08:35:05.113Z,11.40
2018-11-10T08:37:33.497Z,11.50
2018-11-10T08:40:01.845Z,11.50
2018-11-10T08:42:30.214Z,11.60
2018-11-10T08:44:58.604Z,11.60
2018-11-10T08:47:26.943Z,11.70
2018-11-10T08:49:55.328Z,11.70
2018-11-10T08:52:23.703Z,11.70
2018-11-10T08:54:52.092Z,11.80
2018-11-10T08:57:20.538Z,11.80
2018-11-10T08:59:49.540Z,11.80
2018-11-10T09:02:17.935Z,11.90
2018-11-10T09:04:46.356Z,11.90
2018-11-10T09:07:14.725Z,11.90
2018-11-10T09:09:43.129Z,12.00
2018-11-10T09:12:11.515Z,12.00
2018-11-10T09:14:39.914Z,12.00
2018-11-10T09:17:08.465Z,12.10
2018-11-10T09:19:36.843Z,12.20
2018-11-10T09:22:06.388Z,12.30
2018-11-10T09:24:34.843Z,12.30
2018-11-10T09:27:03.214Z,12.40
2018-11-10T09:29:31.576Z,12.50
2018-11-10T09:31:59.937Z,12.50
2018-11-10T09:34:28.287Z,12.50
2018-11-10T09:36:56.621Z,12.60
2018-11-10T09:39:25.007Z,12.60
2018-11-10T09:41:53.408Z,12.70
2018-11-10T09:44:21.957Z,12.70
2018-11-10T09:46:50.303Z,12.70
2018-11-10T09:49:18.651Z,12.70
2018-11-10T09:51:47.043Z,12.70
2018-11-10T09:54:15.417Z,12.80
2018-11-10T09:56:43.802Z,12.80
2018-11-10T09:59:12.150Z,12.80
2018-11-10T10:01:40.651Z,12.90
2018-11-10T10:04:09.002Z,12.90
2018-11-10T10:06:37.354Z,12.90
2018-11-10T10:09:08.341Z,12.90
2018-11-10T10:11:36.873Z,12.90
2018-11-10T10:14:05.894Z,12.90
2018-11-10T10:16:34.406Z,12.90
2018-11-10T10:19:02.623Z,12.90
2018-11-10T10:21:31.005Z,12.90
2018-11-10T10:23:59.387Z,13.00
2018-11-10T10:26:27.712Z,13.00
2018-11-10T10:28:56.114Z,13.00
2018-11-10T10:31:24.545Z,13.00
2018-11-10T10:33:53.134Z,13.00
2018-11-10T10:36:21.456Z,13.10
2018-11-10T10:38:49.846Z,13.10
2018-11-10T10:41:18.214Z,13.10
2018-11-10T10:43:46.560Z,13.20
2018-11-10T10:46:14.938Z,13.20
2018-11-10T10:48:43.359Z,13.20
2018-11-10T10:51:11.769Z,13.30
2018-11-10T10:53:40.166Z,13.30
2018-11-10T10:56:08.601Z,13.30
2018-11-10T10:58:36.992Z,13.40
2018-11-10T11:01:10.630Z,13.40
2018-11-10T11:03:44.387Z,13.50
2018-11-10T11:06:12.827Z,13.50
2018-11-10T11:08:41.270Z,13.50
2018-11-10T11:11:09.635Z,13.60
2018-11-10T11:13:37.981Z,13.60
2018-11-10T11:16:06.945Z,13.70
2018-11-10T11:18:35.315Z,13.70
2018-11-10T11:21:03.643Z,13.70
2018-11-10T11:23:31.997Z,13.70
2018-11-10T11:26:00.371Z,13.70
2018-11-10T11:28:28.747Z,13.80
2018-11-10T11:30:57.176Z,13.70
2018-11-10T11:33:26.129Z,13.80
2018-11-10T11:35:54.517Z,13.80
2018-11-10T11:38:22.862Z,13.80
2018-11-10T11:40:51.221Z,13.80
2018-11-10T11:43:19.594Z,13.80
2018-11-10T11:45:47.957Z,13.90
2018-11-10T11:48:16.306Z,13.90
2018-11-10T11:50:44.664Z,14.00
2018-11-10T11:53:13.124Z,14.10
2018-11-10T11:55:41.486Z,14.10
2018-11-10T11:58:10.132Z,14.10
2018-11-10T12:00:38.243Z,14.10
2018-11-10T12:03:06.628Z,14.10
2018-11-10T12:05:34.971Z,14.10
2018-11-10T12:08:03.405Z,14.10
2018-11-10T12:10:31.735Z,14.00
2018-11-10T12:13:00.108Z,14.00
2018-11-10T12:15:28.569Z,14.00
2018-11-10T12:17:56.814Z,14.00
2018-11-10T12:20:25.200Z,14.00
2018-11-10T12:22:53.596Z,13.90
2018-11-10T12:25:22.013Z,13.90
2018-11-10T12:27:50.397Z,13.90
2018-11-10T12:30:18.759Z,13.90
2018-11-10T12:32:47.161Z,13.80
2018-11-10T12:35:15.509Z,13.80
2018-11-10T12:37:43.943Z,13.70
2018-11-10T12:40:13.272Z,13.70
2018-11-10T12:42:41.730Z,13.70
2018-11-10T12:45:11.291Z,13.70
2018-11-10T12:47:40.238Z,13.60
2018-11-10T12:50:10.365Z,13.70
2018-11-10T12:52:38.694Z,13.70
2018-11-10T12:55:08.143Z,13.70
2018-11-10T12:57:36.512Z,13.60
2018-11-10T13:00:05.842Z,13.60
2018-11-10T13:02:34.206Z,13.60
2018-11-10T13:05:02.588Z,13.50
2018-11-10T13:07:30.927Z,13.50
2018-11-10T13:09:59.292Z,13.40
2018-11-10T13:12:27.627Z,13.40
2018-11-10T13:14:55.984Z,13.40
2018-11-10T13:17:24.402Z,13.40
2018-11-10T13:19:52.704Z,13.30
2018-11-10T13:22:21.030Z,13.20
2018-11-10T13:24:49.358Z,13.10
2018-11-10T13:27:17.748Z,13.00
2018-11-10T13:29:46.142Z,13.00
2018-11-10T13:32:14.506Z,13.00
2018-11-10T13:34:42.903Z,13.00
2018-11-10T13:37:11.257Z,13.00
2018-11-10T13:39:39.608Z,12.90
2018-11-10T13:42:07.980Z,12.90
2018-11-10T13:44:36.326Z,12.90
2018-11-10T13:47:04.960Z,12.90
2018-11-10T13:49:33.294Z,12.90
2018-11-10T13:52:02.020Z,12.90
2018-11-10T13:54:30.070Z,12.90
2018-11-10T13:56:58.437Z,12.90
2018-11-10T13:59:26.880Z,12.80
2018-11-10T14:01:55.132Z,12.80
2018-11-10T14:04:23.492Z,12.80
2018-11-10T14:06:51.858Z,12.80
2018-11-10T14:09:20.450Z,12.80
2018-11-10T14:11:48.817Z,12.80
2018-11-10T14:14:17.159Z,12.80
2018-11-10T14:16:45.467Z,12.80
2018-11-10T14:19:13.851Z,12.80
2018-11-10T14:21:42.161Z,12.80
2018-11-10T14:24:10.525Z,12.70
2018-11-10T14:26:38.858Z,12.80
2018-11-10T14:29:07.622Z,12.80
2018-11-10T14:31:36.125Z,12.80
2018-11-10T14:34:04.627Z,12.70
2018-11-10T14:36:32.968Z,12.70
2018-11-10T14:39:01.563Z,12.70
2018-11-10T14:41:29.892Z,12.70
2018-11-10T14:43:58.272Z,12.70
2018-11-10T14:46:26.592Z,12.70
2018-11-10T14:48:54.965Z,12.70
2018-11-10T14:51:23.326Z,12.70
2018-11-10T14:53:51.660Z,12.70
2018-11-10T14:56:20.068Z,12.70
2018-11-10T14:58:48.443Z,12.70
2018-11-10T15:01:16.810Z,12.70
2018-11-10T15:03:45.154Z,12.70
2018-11-10T15:06:13.492Z,12.70
2018-11-10T15:08:41.832Z,12.70
2018-11-10T15:11:10.388Z,12.70
2018-11-10T15:13:45.253Z,12.70
2018-11-10T15:16:13.621Z,12.70
2018-11-10T15:18:42.007Z,12.70
2018-11-10T15:21:10.381Z,12.70
2018-11-10T15:23:38.719Z,12.70
2018-11-10T15:26:07.078Z,12.70
2018-11-10T15:28:35.456Z,12.70
2018-11-10T15:31:03.804Z,12.70
2018-11-10T15:33:32.148Z,12.70
2018-11-10T15:36:00.492Z,12.70
2018-11-10T15:38:28.847Z,12.70
2018-11-10T15:40:57.337Z,12.70
2018-11-10T15:43:25.692Z,12.70
2018-11-10T15:45:54.050Z,12.70
2018-11-10T15:48:22.393Z,12.70
2018-11-10T15:50:50.739Z,12.70
2018-11-10T15:53:19.094Z,12.70
2018-11-10T15:55:47.469Z,12.70
2018-11-10T15:58:15.820Z,12.80
2018-11-10T16:00:44.129Z,12.80
2018-11-10T16:03:12.520Z,12.80
2018-11-10T16:05:40.835Z,12.80
2018-11-10T16:08:09.141Z,12.80
2018-11-10T16:10:37.463Z,12.80
2018-11-10T16:13:05.804Z,12.80
2018-11-10T16:15:34.137Z,12.80
2018-11-10T16:18:02.449Z,12.80
2018-11-10T16:20:30.806Z,12.80
2018-11-10T16:22:59.185Z,12.80
2018-11-10T16:25:27.530Z,12.80
2018-11-10T16:27:55.894Z,12.80
2018-11-10T16:30:24.242Z,12.70
2018-11-10T16:32:52.564Z,12.80
2018-11-10T16:35:21.057Z,12.80
2018-11-10T16:37:49.401Z,12.80
2018-11-10T16:40:18.900Z,12.80
2018-11-10T16:42:47.978Z,12.80
2018-11-10T16:45:17.170Z,12.80
2018-11-10T16:47:45.560Z,12.80
2018-11-10T16:50:13.912Z,12.70
2018-11-10T16:52:43.024Z,12.70
2018-11-10T16:55:11.452Z,12.70
2018-11-10T16:57:40.107Z,12.60
2018-11-10T17:00:11.378Z,12.60
2018-11-10T17:02:39.752Z,12.60
2018-11-10T17:05:08.216Z,12.50
2018-11-10T17:07:36.565Z,12.50
2018-11-10T17:10:06.144Z,12.40
2018-11-10T17:12:34.490Z,12.40
2018-11-10T17:15:02.838Z,12.30
2018-11-10T17:17:31.201Z,12.30
2018-11-10T17:19:59.550Z,12.20
2018-11-10T17:22:27.964Z,12.10
2018-11-10T17:24:56.308Z,12.10
2018-11-10T17:27:24.722Z,12.10
2018-11-10T17:29:53.077Z,12.10
2018-11-10T17:32:21.624Z,12.10
2018-11-10T17:34:49.958Z,12.00
2018-11-10T17:37:18.431Z,12.00
2018-11-10T17:39:46.967Z,12.00
2018-11-10T17:42:15.278Z,12.00
2018-11-10T17:44:43.819Z,12.00
2018-11-10T17:47:12.160Z,12.00
2018-11-10T17:49:40.536Z,12.00
2018-11-10T17:52:09.039Z,12.00
2018-11-10T17:54:37.346Z,12.00
2018-11-10T17:57:05.841Z,12.00
2018-11-10T17:59:34.192Z,12.00
2018-11-10T18:02:02.640Z,12.00
2018-11-10T18:04:30.985Z,12.00
2018-11-10T18:06:59.331Z,11.90
2018-11-10T18:09:27.685Z,12.00
2018-11-10T18:11:56.034Z,12.00
2018-11-10T18:14:24.528Z,12.00
2018-11-10T18:16:52.911Z,12.00
2018-11-10T18:19:21.257Z,12.00
2018-11-10T18:21:49.613Z,12.00
2018-11-10T18:24:18.000Z,12.00
2018-11-10T18:26:46.376Z,12.00
2018-11-10T18:29:14.753Z,11.90
2018-11-10T18:31:43.098Z,11.90
2018-11-10T18:34:11.488Z,11.90
2018-11-10T18:36:39.841Z,11.90
2018-11-10T18:39:09.547Z,11.90
2018-11-10T18:41:37.910Z,11.90
2018-11-10T18:44:06.383Z,11.80
2018-11-10T18:46:34.775Z,11.70
2018-11-10T18:49:03.217Z,11.70
2018-11-10T18:51:31.614Z,11.80
2018-11-10T18:53:59.972Z,11.80
2018-11-10T18:56:28.331Z,11.80
2018-11-10T18:58:56.759Z,11.80
2018-11-10T19:01:25.139Z,11.80
2018-11-10T19:03:53.482Z,11.70
2018-11-10T19:06:21.915Z,11.70
2018-11-10T19:08:50.252Z,11.70
2018-11-10T19:11:18.597Z,11.80
2018-11-10T19:13:46.960Z,11.70
2018-11-10T19:16:15.295Z,11.70
2018-11-10T19:18:43.715Z,11.80
2018-11-10T19:21:12.054Z,11.80
2018-11-10T19:23:40.406Z,11.80
2018-11-10T19:26:08.768Z,11.80
2018-11-10T19:28:37.173Z,11.80
2018-11-10T19:31:05.576Z,11.90
2018-11-10T19:33:33.931Z,11.90
2018-11-10T19:36:02.297Z,11.90
2018-11-10T19:38:30.659Z,11.90
2018-11-10T19:40:59.087Z,12.00
2018-11-10T19:43:27.488Z,12.00
2018-11-10T19:45:55.838Z,12.00
2018-11-10T19:48:24.261Z,12.00
2018-11-10T19:50:52.716Z,12.00
2018-11-10T19:53:20.935Z,12.00
2018-11-10T19:55:49.292Z,12.00
2018-11-10T19:58:17.625Z,12.00
2018-11-10T20:00:46.041Z,12.00
2018-11-10T20:03:14.357Z,12.00
2018-11-10T20:05:42.853Z,12.00
2018-11-10T20:08:11.213Z,11.90
2018-11-10T20:10:39.561Z,11.90
2018-11-10T20:13:08.026Z,11.90
2018-11-10T20:15:36.324Z,11.90
2018-11-10T20:18:04.705Z,11.90
2018-11-10T20:20:33.051Z,11.90
2018-11-10T20:23:01.398Z,11.90
2018-11-10T20:25:29.785Z,11.90
2018-11-10T20:27:58.133Z,11.90
2018-11-10T20:30:26.481Z,11.90
2018-11-10T20:32:54.923Z,11.90
2018-11-10T20:35:23.232Z,12.00
2018-11-10T20:37:51.616Z,12.00
2018-11-10T20:40:19.959Z,12.00
2018-11-10T20:42:48.353Z,11.90
2018-11-10T20:45:18.471Z,11.90
2018-11-10T20:47:46.930Z,11.90
2018-11-10T20:50:15.903Z,11.80
2018-11-10T20:52:44.265Z,11.80
2018-11-10T20:55:13.193Z,11.80
2018-11-10T20:57:41.567Z,11.80
2018-11-10T21:00:12.203Z,11.80
2018-11-10T21:02:41.409Z,11.90
2018-11-10T21:05:10.977Z,11.90
2018-11-10T21:07:39.329Z,11.90
2018-11-10T21:10:10.112Z,11.90
2018-11-10T21:12:38.544Z,11.90
2018-11-10T21:15:07.557Z,11.90
2018-11-10T21:17:36.142Z,12.00
2018-11-10T21:20:04.666Z,12.10
2018-11-10T21:22:34.783Z,12.20
2018-11-10T21:25:03.188Z,12.20
2018-11-10T21:27:31.557Z,12.30
2018-11-10T21:29:59.908Z,12.30
2018-11-10T21:32:28.237Z,12.30
2018-11-10T21:34:56.570Z,12.30
2018-11-10T21:37:24.939Z,12.30
2018-11-10T21:39:53.311Z,12.20
2018-11-10T21:42:21.691Z,12.20
2018-11-10T21:44:50.054Z,12.20
2018-11-10T21:47:18.524Z,12.10
2018-11-10T21:49:46.924Z,12.00
2018-11-10T21:52:15.278Z,11.90
2018-11-10T21:54:43.626Z,11.90
2018-11-10T21:57:11.971Z,11.80
2018-11-10T21:59:40.328Z,11.80
2018-11-10T22:02:08.665Z,11.80
2018-11-10T22:04:37.032Z,11.80
2018-11-10T22:07:05.379Z,11.70
2018-11-10T22:09:33.994Z,11.70
2018-11-10T22:12:02.123Z,11.70
2018-11-10T22:14:30.513Z,11.60
2018-11-10T22:16:59.447Z,11.60
2018-11-10T22:19:27.790Z,11.60
2018-11-10T22:21:56.147Z,11.60
2018-11-10T22:24:24.562Z,11.60
2018-11-10T22:26:52.878Z,11.60
2018-11-10T22:29:21.255Z,11.70
2018-11-10T22:31:49.604Z,11.70
2018-11-10T22:34:17.940Z,11.70
2018-11-10T22:36:46.308Z,11.70
2018-11-10T22:39:14.670Z,11.70
2018-11-10T22:41:43.038Z,11.60
2018-11-10T22:44:11.377Z,11.60
2018-11-10T22:46:39.728Z,11.60
2018-11-10T22:49:08.113Z,11.60
2018-11-10T22:51:36.465Z,11.60
2018-11-10T22:54:05.095Z,11.60
2018-11-10T22:56:33.445Z,11.50
2018-11-10T22:59:01.786Z,11.50
2018-11-10T23:01:30.983Z,11.50
2018-11-10T23:03:59.346Z,11.50
2018-11-10T23:06:27.751Z,11.50
2018-11-10T23:08:56.087Z,11.40
2018-11-10T23:11:24.656Z,11.40
2018-11-10T23:13:53.001Z,11.40
2018-11-10T23:16:21.351Z,11.40
2018-11-10T23:18:49.685Z,11.50
2018-11-10T23:21:18.029Z,11.50
2018-11-10T23:23:46.335Z,11.50
2018-11-10T23:26:14.668Z,11.50
2018-11-10T23:28:43.014Z,11.50
2018-11-10T23:31:11.375Z,11.50
2018-11-10T23:33:39.751Z,11.50
2018-11-10T23:36:08.132Z,11.60
2018-11-10T23:38:36.488Z,11.60
2018-11-10T23:41:05.229Z,11.60
2018-11-10T23:43:33.613Z,11.60
2018-11-10T23:46:01.989Z,11.60
2018-11-10T23:48:30.323Z,11.50
2018-11-10T23:50:58.690Z,11.50
2018-11-10T23:53:27.040Z,11.50
2018-11-10T23:55:55.377Z,11.60
2018-11-10T23:58:23.713Z,11.60
